Etusivu
METAR-TAF:

METAR-TAF

Lentoasemat :

Florø, Norja

Leveyspiiri: 61-35N, Pituuspiiri: 005-02E, korkeus merenpinnasta: 0 m

Tämänhetkinen sää

Tämä raportti tehtiin 21 minuuttia sitten, kello 17.50 UTC
Tuuli 7 kn idästä
Lämpötila 4°C
Kosteus 81%
Ilmanpaine 1031 hPa
Näkyvyys 10 km tai enemmän
ei pilviä alle 1500 m:ssä eikä cumulonimbus-pilviä

METAR: ENFL 211750Z 08007KT CAVOK 04/01 Q1031

Aika: 19:11 (18:11 UTC)

Sääennuste

Tämä raportti tehtiin 1 tunti ja 11 minuuttia sitten, kello 17.00 UTC
Ennuste voimassa 21. päivästä klo 18 UTC - 21. päivään klo 21 UTC
Tuuli 6 kn idästä/kaakosta
Näkyvyys 10 km tai enemmän
ei pilviä alle 1500 m:ssä eikä cumulonimbus-pilviä

TAF: ENFL 211700Z 2118/2121 11006KT CAVOK

Säähavainnot ja -ennusteet yli 4000 lentoasemalta (METAR- ja TAF-raportit).

Käytössä olevat sääasemat on merkitty karttaan keltaisilla ja punaisilla pisteillä.

Aseta hiiri pisteen päälle nähdäksesi sääaseman nimen.

Klikkaa sitten nähdäksesi säähavainnot ja -ennusteet.

Kartan vaihtaminen: klikkaa mustalla rastilla varustettuja vihreitä pisteitä, niin voit zoomata sisään; viivalla varustettua vihreää pistettä, niin voit zoomata ulos tai vihreitä nuolia, niin pääset viereisille kartoille.


METAR-TAF: